sensor_id;sensor_type;location;lat;lon;timestamp;pressure;altitude;pressure_sealevel;temperature;humidity
75424;BME280;64005;55.160;36.002;2023-04-03T00:02:23;98800.72;;;6.70;76.97
75424;BME280;64005;55.160;36.002;2023-04-03T00:04:51;98796.13;;;6.65;76.96
75424;BME280;64005;55.160;36.002;2023-04-03T00:07:18;98806.88;;;6.67;77.46
75424;BME280;64005;55.160;36.002;2023-04-03T00:09:46;98804.09;;;6.67;76.65
75424;BME280;64005;55.160;36.002;2023-04-03T00:12:13;98799.41;;;6.67;77.56
75424;BME280;64005;55.160;36.002;2023-04-03T00:14:42;98790.59;;;6.65;77.52
75424;BME280;64005;55.160;36.002;2023-04-03T00:17:10;98798.72;;;6.62;76.87
75424;BME280;64005;55.160;36.002;2023-04-03T00:19:37;98800.66;;;6.61;77.08
75424;BME280;64005;55.160;36.002;2023-04-03T00:22:05;98798.22;;;6.60;77.26
75424;BME280;64005;55.160;36.002;2023-04-03T00:24:32;98799.34;;;6.59;77.61
75424;BME280;64005;55.160;36.002;2023-04-03T00:27:00;98801.28;;;6.58;77.75
75424;BME280;64005;55.160;36.002;2023-04-03T00:29:27;98800.16;;;6.59;77.00
75424;BME280;64005;55.160;36.002;2023-04-03T00:31:56;98796.78;;;6.62;77.11
75424;BME280;64005;55.160;36.002;2023-04-03T00:34:24;98795.00;;;6.66;76.95
75424;BME280;64005;55.160;36.002;2023-04-03T00:36:51;98674.34;;;5.86;76.89
75424;BME280;64005;55.160;36.002;2023-04-03T00:39:19;98754.72;;;6.43;77.46
75424;BME280;64005;55.160;36.002;2023-04-03T00:41:46;98796.13;;;6.65;76.76
75424;BME280;64005;55.160;36.002;2023-04-03T00:44:22;98753.38;;;6.41;76.89
75424;BME280;64005;55.160;36.002;2023-04-03T00:47:13;98793.88;;;6.67;76.69
75424;BME280;64005;55.160;36.002;2023-04-03T00:49:42;98782.66;;;6.64;77.42
75424;BME280;64005;55.160;36.002;2023-04-03T00:52:13;98751.94;;;6.43;77.46
75424;BME280;64005;55.160;36.002;2023-04-03T00:54:44;98797.75;;;6.66;77.72
75424;BME280;64005;55.160;36.002;2023-04-03T00:57:12;98797.28;;;6.64;77.36
75424;BME280;64005;55.160;36.002;2023-04-03T00:59:44;98794.31;;;6.61;77.88
75424;BME280;64005;55.160;36.002;2023-04-03T01:02:13;98804.75;;;6.64;77.05
75424;BME280;64005;55.160;36.002;2023-04-03T01:04:43;98795.66;;;6.63;77.53
75424;BME280;64005;55.160;36.002;2023-04-03T01:07:14;98788.28;;;6.59;78.04
75424;BME280;64005;55.160;36.002;2023-04-03T01:09:43;98784.84;;;6.53;77.49
75424;BME280;64005;55.160;36.002;2023-04-03T01:12:17;98792.66;;;6.51;77.63
75424;BME280;64005;55.160;36.002;2023-04-03T01:14:45;98792.66;;;6.51;77.59
75424;BME280;64005;55.160;36.002;2023-04-03T01:17:33;98795.03;;;6.44;77.15
75424;BME280;64005;55.160;36.002;2023-04-03T01:20:31;98740.09;;;5.98;77.46
75424;BME280;64005;55.160;36.002;2023-04-03T01:23:17;98801.44;;;6.31;78.00
75424;BME280;64005;55.160;36.002;2023-04-03T01:25:50;98803.81;;;6.24;77.65
75424;BME280;64005;55.160;36.002;2023-04-03T01:28:20;98801.88;;;6.24;77.28
75424;BME280;64005;55.160;36.002;2023-04-03T01:30:52;98803.31;;;6.22;77.51
75424;BME280;64005;55.160;36.002;2023-04-03T01:33:22;98795.63;;;6.19;77.58
75424;BME280;64005;55.160;36.002;2023-04-03T01:35:49;98803.91;;;6.19;78.07
75424;BME280;64005;55.160;36.002;2023-04-03T01:38:17;98782.00;;;6.00;77.12
75424;BME280;64005;55.160;36.002;2023-04-03T01:40:44;98806.50;;;6.15;77.76
75424;BME280;64005;55.160;36.002;2023-04-03T01:43:12;98794.75;;;6.10;77.02
75424;BME280;64005;55.160;36.002;2023-04-03T01:45:39;98808.50;;;6.23;77.72
75424;BME280;64005;55.160;36.002;2023-04-03T01:48:07;98809.50;;;6.27;77.60
75424;BME280;64005;55.160;36.002;2023-04-03T01:50:36;98807.44;;;6.33;77.02
75424;BME280;64005;55.160;36.002;2023-04-03T01:53:03;98804.38;;;6.34;78.05
75424;BME280;64005;55.160;36.002;2023-04-03T01:55:31;98794.28;;;6.30;77.40
75424;BME280;64005;55.160;36.002;2023-04-03T01:57:58;98800.63;;;6.30;77.67
75424;BME280;64005;55.160;36.002;2023-04-03T02:00:26;98790.81;;;6.24;77.32
75424;BME280;64005;55.160;36.002;2023-04-03T02:02:53;98800.84;;;6.20;76.87
75424;BME280;64005;55.160;36.002;2023-04-03T02:05:21;98799.63;;;6.13;77.12
75424;BME280;64005;55.160;36.002;2023-04-03T02:07:50;98800.72;;;6.03;77.25
75424;BME280;64005;55.160;36.002;2023-04-03T02:10:18;98795.41;;;5.93;77.92
75424;BME280;64005;55.160;36.002;2023-04-03T02:12:45;98798.06;;;5.84;78.28
75424;BME280;64005;55.160;36.002;2023-04-03T02:15:13;98792.47;;;5.76;77.46
75424;BME280;64005;55.160;36.002;2023-04-03T02:17:40;98795.81;;;5.73;77.37
75424;BME280;64005;55.160;36.002;2023-04-03T02:20:08;98804.44;;;5.71;77.99
75424;BME280;64005;55.160;36.002;2023-04-03T02:22:36;98805.84;;;5.69;78.52
75424;BME280;64005;55.160;36.002;2023-04-03T02:25:05;98803.41;;;5.67;77.43
75424;BME280;64005;55.160;36.002;2023-04-03T02:27:33;98796.75;;;5.68;77.26
75424;BME280;64005;55.160;36.002;2023-04-03T02:30:01;98808.81;;;5.72;77.28
75424;BME280;64005;55.160;36.002;2023-04-03T02:32:29;98809.31;;;5.74;78.12
75424;BME280;64005;55.160;36.002;2023-04-03T02:34:57;98813.72;;;5.75;77.64
75424;BME280;64005;55.160;36.002;2023-04-03T02:37:24;98816.19;;;5.77;78.02
75424;BME280;64005;55.160;36.002;2023-04-03T02:39:52;98819.41;;;5.79;78.09
75424;BME280;64005;55.160;36.002;2023-04-03T02:42:21;98815.06;;;5.78;77.42
75424;BME280;64005;55.160;36.002;2023-04-03T02:44:48;98822.19;;;5.79;77.46
75424;BME280;64005;55.160;36.002;2023-04-03T02:47:16;98821.56;;;5.82;77.79
75424;BME280;64005;55.160;36.002;2023-04-03T02:49:43;98830.69;;;5.82;77.05
75424;BME280;64005;55.160;36.002;2023-04-03T02:52:11;98825.34;;;5.86;77.69
75424;BME280;64005;55.160;36.002;2023-04-03T02:54:39;98831.41;;;5.88;77.18
75424;BME280;64005;55.160;36.002;2023-04-03T02:57:07;98831.63;;;5.91;76.91
75424;BME280;64005;55.160;36.002;2023-04-03T02:59:37;98832.09;;;5.93;77.14
75424;BME280;64005;55.160;36.002;2023-04-03T03:02:06;98832.09;;;5.93;76.86
75424;BME280;64005;55.160;36.002;2023-04-03T03:04:34;98835.38;;;5.95;77.54
75424;BME280;64005;55.160;36.002;2023-04-03T03:07:02;98838.66;;;5.97;77.84
75424;BME280;64005;55.160;36.002;2023-04-03T03:09:30;98833.31;;;6.01;76.72
75424;BME280;64005;55.160;36.002;2023-04-03T03:11:57;98829.97;;;6.04;77.27
75424;BME280;64005;55.160;36.002;2023-04-03T03:14:25;98829.97;;;6.04;77.85
75424;BME280;64005;55.160;36.002;2023-04-03T03:16:54;98828.00;;;6.05;76.91
75424;BME280;64005;55.160;36.002;2023-04-03T03:19:21;98834.03;;;6.07;77.86
75424;BME280;64005;55.160;36.002;2023-04-03T03:21:49;98831.25;;;6.07;77.67
75424;BME280;64005;55.160;36.002;2023-04-03T03:24:17;98831.91;;;6.04;77.12
75424;BME280;64005;55.160;36.002;2023-04-03T03:26:44;98834.97;;;6.02;77.80
75424;BME280;64005;55.160;36.002;2023-04-03T03:29:12;98818.59;;;5.92;78.41
75424;BME280;64005;55.160;36.002;2023-04-03T03:31:39;98824.84;;;5.97;77.84
75424;BME280;64005;55.160;36.002;2023-04-03T03:34:08;98835.69;;;5.94;78.64
75424;BME280;64005;55.160;36.002;2023-04-03T03:36:35;98828.53;;;5.93;77.91
75424;BME280;64005;55.160;36.002;2023-04-03T03:39:03;98835.09;;;5.97;78.05
75424;BME280;64005;55.160;36.002;2023-04-03T03:41:31;98831.09;;;6.03;77.95
75424;BME280;64005;55.160;36.002;2023-04-03T03:43:58;98828.19;;;6.08;78.07
75424;BME280;64005;55.160;36.002;2023-04-03T03:46:25;98830.66;;;6.10;78.49
75424;BME280;64005;55.160;36.002;2023-04-03T03:48:53;98836.66;;;6.12;78.51
75424;BME280;64005;55.160;36.002;2023-04-03T03:51:22;98839.13;;;6.13;78.22
75424;BME280;64005;55.160;36.002;2023-04-03T03:53:49;98841.28;;;6.16;77.98
75424;BME280;64005;55.160;36.002;2023-04-03T03:56:17;98842.56;;;6.19;79.18
75424;BME280;64005;55.160;36.002;2023-04-03T03:58:44;98848.81;;;6.24;78.43
75424;BME280;64005;55.160;36.002;2023-04-03T04:01:12;98852.28;;;6.30;79.13
75424;BME280;64005;55.160;36.002;2023-04-03T04:03:41;98845.81;;;6.34;78.56
75424;BME280;64005;55.160;36.002;2023-04-03T04:06:08;98849.56;;;6.38;79.13
75424;BME280;64005;55.160;36.002;2023-04-03T04:08:37;98852.34;;;6.38;78.62
75424;BME280;64005;55.160;36.002;2023-04-03T04:11:05;98852.53;;;6.42;78.99
75424;BME280;64005;55.160;36.002;2023-04-03T04:13:33;98846.72;;;6.44;78.41
75424;BME280;64005;55.160;36.002;2023-04-03T04:16:00;98841.50;;;6.42;78.88
75424;BME280;64005;55.160;36.002;2023-04-03T04:18:28;98844.94;;;6.48;78.93
75424;BME280;64005;55.160;36.002;2023-04-03T04:20:56;98847.19;;;6.46;78.52
75424;BME280;64005;55.160;36.002;2023-04-03T04:23:23;98849.34;;;6.49;78.32
75424;BME280;64005;55.160;36.002;2023-04-03T04:25:52;98855.38;;;6.51;78.50
75424;BME280;64005;55.160;36.002;2023-04-03T04:28:20;98858.97;;;6.51;79.28
75424;BME280;64005;55.160;36.002;2023-04-03T04:30:47;98862.72;;;6.55;78.43
75424;BME280;64005;55.160;36.002;2023-04-03T04:33:15;98860.25;;;6.54;78.56
75424;BME280;64005;55.160;36.002;2023-04-03T04:35:42;98852.94;;;6.49;79.08
75424;BME280;64005;55.160;36.002;2023-04-03T04:38:10;98862.34;;;6.48;78.54
75424;BME280;64005;55.160;36.002;2023-04-03T04:40:37;98856.63;;;6.45;78.82
75424;BME280;64005;55.160;36.002;2023-04-03T04:43:07;98857.56;;;6.40;79.56
75424;BME280;64005;55.160;36.002;2023-04-03T04:45:36;98864.84;;;6.36;78.88
75424;BME280;64005;55.160;36.002;2023-04-03T04:48:04;98859.84;;;6.38;78.96
75424;BME280;64005;55.160;36.002;2023-04-03T04:50:32;98867.19;;;6.43;78.85
75424;BME280;64005;55.160;36.002;2023-04-03T04:52:59;98861.56;;;6.34;79.62
75424;BME280;64005;55.160;36.002;2023-04-03T04:55:26;98862.69;;;6.33;78.79
75424;BME280;64005;55.160;36.002;2023-04-03T04:57:54;98862.22;;;6.31;79.70
75424;BME280;64005;55.160;36.002;2023-04-03T05:00:23;98856.28;;;6.24;79.15
75424;BME280;64005;55.160;36.002;2023-04-03T05:02:51;98857.50;;;6.31;79.83
75424;BME280;64005;55.160;36.002;2023-04-03T05:05:18;98862.38;;;6.34;79.69
75424;BME280;64005;55.160;36.002;2023-04-03T05:07:45;98861.66;;;6.43;78.55
75424;BME280;64005;55.160;36.002;2023-04-03T05:10:13;98867.03;;;6.48;79.00
75424;BME280;64005;55.160;36.002;2023-04-03T05:12:40;98869.19;;;6.51;78.71
75424;BME280;64005;55.160;36.002;2023-04-03T05:15:09;98870.19;;;6.55;78.59
75424;BME280;64005;55.160;36.002;2023-04-03T05:17:38;98858.84;;;6.56;78.70
75424;BME280;64005;55.160;36.002;2023-04-03T05:20:07;98856.56;;;6.58;78.35
75424;BME280;64005;55.160;36.002;2023-04-03T05:22:34;98860.97;;;6.59;78.43
75424;BME280;64005;55.160;36.002;2023-04-03T05:25:02;98866.03;;;6.66;78.04
75424;BME280;64005;55.160;36.002;2023-04-03T05:27:29;98870.13;;;6.68;78.03
75424;BME280;64005;55.160;36.002;2023-04-03T05:29:57;98869.69;;;6.75;78.10
75424;BME280;64005;55.160;36.002;2023-04-03T05:32:25;98873.16;;;6.81;78.72
75424;BME280;64005;55.160;36.002;2023-04-03T05:34:54;98871.72;;;6.83;78.16
75424;BME280;64005;55.160;36.002;2023-04-03T05:37:22;98874.03;;;6.90;77.83
75424;BME280;64005;55.160;36.002;2023-04-03T05:39:50;98876.84;;;6.98;77.67
75424;BME280;64005;55.160;36.002;2023-04-03T05:42:17;98887.66;;;7.08;77.76
75424;BME280;64005;55.160;36.002;2023-04-03T05:44:44;98887.56;;;7.22;77.79
75424;BME280;64005;55.160;36.002;2023-04-03T05:47:13;98888.63;;;7.35;76.87
75424;BME280;64005;55.160;36.002;2023-04-03T05:49:40;98886.84;;;7.39;77.12
75424;BME280;64005;55.160;36.002;2023-04-03T05:52:19;98886.66;;;7.35;76.50
75424;BME280;64005;55.160;36.002;2023-04-03T05:54:47;98867.75;;;7.29;76.41
75424;BME280;64005;55.160;36.002;2023-04-03T05:57:22;98879.09;;;7.49;76.75
75424;BME280;64005;55.160;36.002;2023-04-03T05:59:49;98878.44;;;7.52;76.67
75424;BME280;64005;55.160;36.002;2023-04-03T06:02:24;98885.91;;;7.52;76.56
75424;BME280;64005;55.160;36.002;2023-04-03T06:04:52;98887.88;;;7.51;76.59
75424;BME280;64005;55.160;36.002;2023-04-03T06:07:23;98884.63;;;7.49;76.86
75424;BME280;64005;55.160;36.002;2023-04-03T06:09:55;98895.84;;;7.53;76.40
75424;BME280;64005;55.160;36.002;2023-04-03T06:12:23;98892.94;;;7.58;76.40
75424;BME280;64005;55.160;36.002;2023-04-03T06:14:50;98890.63;;;7.51;76.21
75424;BME280;64005;55.160;36.002;2023-04-03T06:17:18;98895.41;;;7.59;76.35
75424;BME280;64005;55.160;36.002;2023-04-03T06:19:53;98895.91;;;7.62;76.33
75424;BME280;64005;55.160;36.002;2023-04-03T06:22:23;98899.84;;;7.69;76.03
75424;BME280;64005;55.160;36.002;2023-04-03T06:24:51;98902.78;;;7.73;76.06
75424;BME280;64005;55.160;36.002;2023-04-03T06:27:19;98909.13;;;7.73;75.64
75424;BME280;64005;55.160;36.002;2023-04-03T06:29:46;98900.22;;;7.76;75.56
75424;BME280;64005;55.160;36.002;2023-04-03T06:32:14;98902.97;;;7.76;75.73
75424;BME280;64005;55.160;36.002;2023-04-03T06:34:42;98903.81;;;7.85;75.80
75424;BME280;64005;55.160;36.002;2023-04-03T06:37:11;98901.25;;;7.97;75.24
75424;BME280;64005;55.160;36.002;2023-04-03T06:39:43;98908.13;;;8.09;74.67
75424;BME280;64005;55.160;36.002;2023-04-03T06:42:11;98913.81;;;8.12;74.86
75424;BME280;64005;55.160;36.002;2023-04-03T06:44:38;98908.63;;;8.19;74.68
75424;BME280;64005;55.160;36.002;2023-04-03T06:47:06;98916.78;;;8.24;74.68
75424;BME280;64005;55.160;36.002;2023-04-03T06:49:34;98919.41;;;8.21;74.65
75424;BME280;64005;55.160;36.002;2023-04-03T06:52:03;98915.81;;;8.20;74.56
75424;BME280;64005;55.160;36.002;2023-04-03T06:54:31;98922.66;;;8.23;74.71
75424;BME280;64005;55.160;36.002;2023-04-03T06:57:00;98918.22;;;8.13;74.51
75424;BME280;64005;55.160;36.002;2023-04-03T06:59:27;98921.66;;;8.19;74.48
75424;BME280;64005;55.160;36.002;2023-04-03T07:01:55;98919.56;;;8.16;74.75
75424;BME280;64005;55.160;36.002;2023-04-03T07:04:24;98928.88;;;8.28;74.45
75424;BME280;64005;55.160;36.002;2023-04-03T07:06:52;98915.06;;;8.37;73.57
75424;BME280;64005;55.160;36.002;2023-04-03T07:09:19;98921.09;;;8.48;73.57
75424;BME280;64005;55.160;36.002;2023-04-03T07:11:47;98929.75;;;8.55;73.76
75424;BME280;64005;55.160;36.002;2023-04-03T07:14:16;98927.81;;;8.64;73.41
75424;BME280;64005;55.160;36.002;2023-04-03T07:16:43;98926.00;;;8.68;73.47
75424;BME280;64005;55.160;36.002;2023-04-03T07:24:15;98925.19;;;8.85;73.35
75424;BME280;64005;55.160;36.002;2023-04-03T07:29:39;98785.88;;;7.84;73.53
75424;BME280;64005;55.160;36.002;2023-04-03T07:32:24;98924.41;;;8.84;72.95
75424;BME280;64005;55.160;36.002;2023-04-03T07:34:52;98854.56;;;8.39;73.37
75424;BME280;64005;55.160;36.002;2023-04-03T07:39:55;98929.94;;;9.10;72.61
75424;BME280;64005;55.160;36.002;2023-04-03T07:42:43;98939.69;;;9.33;72.50
75424;BME280;64005;55.160;36.002;2023-04-03T07:45:12;98855.53;;;8.95;71.70
75424;BME280;64005;55.160;36.002;2023-04-03T07:50:16;98943.88;;;9.56;71.44
75424;BME280;64005;55.160;36.002;2023-04-03T07:52:44;98942.91;;;9.52;71.53
75424;BME280;64005;55.160;36.002;2023-04-03T08:10:48;98932.00;;;10.53;69.38
75424;BME280;64005;55.160;36.002;2023-04-03T08:34:55;98946.16;;;11.43;67.69
75424;BME280;64005;55.160;36.002;2023-04-03T09:08:06;98956.53;;;12.36;65.81
75424;BME280;64005;55.160;36.002;2023-04-03T10:59:40;98966.97;;;13.56;64.12
75424;BME280;64005;55.160;36.002;2023-04-03T11:31:06;98956.03;;;14.25;63.47
75424;BME280;64005;55.160;36.002;2023-04-03T11:41:26;98949.72;;;14.95;61.31
75424;BME280;64005;55.160;36.002;2023-04-03T11:44:05;98950.16;;;14.97;61.12
75424;BME280;64005;55.160;36.002;2023-04-03T11:54:45;98938.22;;;15.00;60.68
75424;BME280;64005;55.160;36.002;2023-04-03T11:59:48;98937.41;;;15.19;60.16
75424;BME280;64005;55.160;36.002;2023-04-03T12:08:21;98940.16;;;15.34;59.90
75424;BME280;64005;55.160;36.002;2023-04-03T12:31:31;98936.09;;;14.43;61.71
75424;BME280;64005;55.160;36.002;2023-04-03T12:53:34;98908.66;;;13.85;62.56
75424;BME280;64005;55.160;36.002;2023-04-03T12:56:25;98939.16;;;14.06;62.29
75424;BME280;64005;55.160;36.002;2023-04-03T12:58:55;98921.75;;;13.97;62.38
75424;BME280;64005;55.160;36.002;2023-04-03T13:04:05;98941.50;;;14.04;62.78
75424;BME280;64005;55.160;36.002;2023-04-03T13:28:24;98911.38;;;14.13;57.75
75424;BME280;64005;55.160;36.002;2023-04-03T13:31:08;98920.84;;;14.24;57.55
75424;BME280;64005;55.160;36.002;2023-04-03T13:54:41;98939.63;;;14.08;54.29
75424;BME280;64005;55.160;36.002;2023-04-03T14:07:35;98935.75;;;14.28;53.48
75424;BME280;64005;55.160;36.002;2023-04-03T14:28:14;98928.50;;;14.12;52.83
75424;BME280;64005;55.160;36.002;2023-04-03T14:41:59;98931.16;;;13.89;57.12
75424;BME280;64005;55.160;36.002;2023-04-03T14:44:28;98928.22;;;13.70;58.43
75424;BME280;64005;55.160;36.002;2023-04-03T14:55:53;98937.91;;;13.17;61.65
75424;BME280;64005;55.160;36.002;2023-04-03T14:58:21;98935.59;;;13.06;62.73
75424;BME280;64005;55.160;36.002;2023-04-03T15:00:50;98932.94;;;12.98;63.16
75424;BME280;64005;55.160;36.002;2023-04-03T15:03:19;98937.97;;;12.92;63.41
75424;BME280;64005;55.160;36.002;2023-04-03T15:05:48;98943.22;;;12.82;63.50
75424;BME280;64005;55.160;36.002;2023-04-03T15:08:46;98934.06;;;12.69;64.15
75424;BME280;64005;55.160;36.002;2023-04-03T15:11:40;98939.31;;;12.58;64.15
75424;BME280;64005;55.160;36.002;2023-04-03T15:14:09;98935.16;;;12.40;65.16
75424;BME280;64005;55.160;36.002;2023-04-03T15:16:38;98939.69;;;12.32;65.33
75424;BME280;64005;55.160;36.002;2023-04-03T15:19:05;98923.19;;;12.15;65.90
75424;BME280;64005;55.160;36.002;2023-04-03T15:21:33;98947.00;;;12.13;66.06
75424;BME280;64005;55.160;36.002;2023-04-03T15:24:00;98929.78;;;11.99;66.68
75424;BME280;64005;55.160;36.002;2023-04-03T15:26:28;98945.59;;;11.94;66.82
75424;BME280;64005;55.160;36.002;2023-04-03T15:28:56;98943.63;;;11.83;66.93
75424;BME280;64005;55.160;36.002;2023-04-03T15:34:20;98953.38;;;11.56;67.96
75424;BME280;64005;55.160;36.002;2023-04-03T15:36:48;98943.81;;;11.45;68.53
75424;BME280;64005;55.160;36.002;2023-04-03T15:39:15;98955.84;;;11.37;68.56
75424;BME280;64005;55.160;36.002;2023-04-03T15:41:43;98954.31;;;11.27;68.89
75424;BME280;64005;55.160;36.002;2023-04-03T15:44:11;98951.28;;;11.20;69.46
75424;BME280;64005;55.160;36.002;2023-04-03T15:46:39;98955.75;;;11.12;69.40
75424;BME280;64005;55.160;36.002;2023-04-03T15:49:07;98952.72;;;11.05;69.60
75424;BME280;64005;55.160;36.002;2023-04-03T15:51:36;98951.97;;;10.96;69.96
75424;BME280;64005;55.160;36.002;2023-04-03T15:54:03;98946.47;;;10.88;70.11
75424;BME280;64005;55.160;36.002;2023-04-03T15:56:31;98951.28;;;10.79;70.83
75424;BME280;64005;55.160;36.002;2023-04-03T15:58:58;98949.72;;;10.69;71.24
75424;BME280;64005;55.160;36.002;2023-04-03T16:01:25;98951.09;;;10.63;71.10
75424;BME280;64005;55.160;36.002;2023-04-03T16:03:53;98952.28;;;10.53;71.33
75424;BME280;64005;55.160;36.002;2023-04-03T16:06:21;98954.78;;;10.46;71.56
75424;BME280;64005;55.160;36.002;2023-04-03T16:08:52;98959.72;;;10.41;72.01
75424;BME280;64005;55.160;36.002;2023-04-03T16:11:22;98958.28;;;10.34;72.05
75424;BME280;64005;55.160;36.002;2023-04-03T16:13:50;98959.31;;;10.30;72.33
75424;BME280;64005;55.160;36.002;2023-04-03T16:16:17;98946.13;;;10.10;72.74
75424;BME280;64005;55.160;36.002;2023-04-03T16:18:45;98968.34;;;10.18;72.42
75424;BME280;64005;55.160;36.002;2023-04-03T16:21:15;98970.63;;;10.16;72.50
75424;BME280;64005;55.160;36.002;2023-04-03T16:23:43;98972.44;;;10.12;72.58
75424;BME280;64005;55.160;36.002;2023-04-03T16:26:12;98982.25;;;10.10;73.02
75424;BME280;64005;55.160;36.002;2023-04-03T16:28:39;98971.16;;;10.10;73.14
75424;BME280;64005;55.160;36.002;2023-04-03T16:31:07;98980.13;;;10.07;72.82
75424;BME280;64005;55.160;36.002;2023-04-03T16:33:35;98979.03;;;9.99;72.93
75424;BME280;64005;55.160;36.002;2023-04-03T16:36:04;98979.69;;;9.96;73.25
75424;BME280;64005;55.160;36.002;2023-04-03T16:38:31;98983.81;;;9.90;73.26
75424;BME280;64005;55.160;36.002;2023-04-03T16:40:59;98988.25;;;9.82;73.54
75424;BME280;64005;55.160;36.002;2023-04-03T16:43:32;98987.63;;;9.77;73.70
75424;BME280;64005;55.160;36.002;2023-04-03T16:46:01;98993.00;;;9.73;73.98
75424;BME280;64005;55.160;36.002;2023-04-03T16:48:29;98990.72;;;9.67;73.95
75424;BME280;64005;55.160;36.002;2023-04-03T16:50:56;98988.78;;;9.58;74.20
75424;BME280;64005;55.160;36.002;2023-04-03T16:53:25;98989.31;;;9.43;74.28
75424;BME280;64005;55.160;36.002;2023-04-03T16:55:52;98992.25;;;9.38;74.50
75424;BME280;64005;55.160;36.002;2023-04-03T16:58:20;98995.06;;;9.30;75.12
75424;BME280;64005;55.160;36.002;2023-04-03T17:00:49;98993.91;;;9.22;75.27
75424;BME280;64005;55.160;36.002;2023-04-03T17:03:17;99001.72;;;9.20;75.16
75424;BME280;64005;55.160;36.002;2023-04-03T17:05:47;98990.00;;;9.14;75.24
75424;BME280;64005;55.160;36.002;2023-04-03T17:08:16;98989.50;;;8.95;75.26
75424;BME280;64005;55.160;36.002;2023-04-03T17:10:43;99008.75;;;9.09;75.56
75424;BME280;64005;55.160;36.002;2023-04-03T17:13:11;99003.84;;;9.06;75.47
75424;BME280;64005;55.160;36.002;2023-04-03T17:15:38;98975.28;;;8.80;75.78
75424;BME280;64005;55.160;36.002;2023-04-03T17:18:08;99009.75;;;8.96;75.81
75424;BME280;64005;55.160;36.002;2023-04-03T17:20:35;99006.78;;;8.92;75.82
75424;BME280;64005;55.160;36.002;2023-04-03T17:23:04;99014.94;;;8.89;75.86
75424;BME280;64005;55.160;36.002;2023-04-03T17:25:31;99017.53;;;8.85;75.89
75424;BME280;64005;55.160;36.002;2023-04-03T17:27:59;99011.34;;;8.80;75.98
75424;BME280;64005;55.160;36.002;2023-04-03T17:30:26;99011.50;;;8.74;76.04
75424;BME280;64005;55.160;36.002;2023-04-03T17:32:54;99016.38;;;8.77;76.10
75424;BME280;64005;55.160;36.002;2023-04-03T17:35:23;99024.22;;;8.75;76.29
75424;BME280;64005;55.160;36.002;2023-04-03T17:37:50;99027.31;;;8.74;76.07
75424;BME280;64005;55.160;36.002;2023-04-03T17:40:18;99021.78;;;8.74;75.98
75424;BME280;64005;55.160;36.002;2023-04-03T17:42:46;99026.81;;;8.72;76.30
75424;BME280;64005;55.160;36.002;2023-04-03T17:45:13;99028.63;;;8.68;76.43
75424;BME280;64005;55.160;36.002;2023-04-03T17:47:41;99023.22;;;8.63;76.56
75424;BME280;64005;55.160;36.002;2023-04-03T17:50:08;99024.88;;;8.64;76.59
75424;BME280;64005;55.160;36.002;2023-04-03T17:52:37;99027.97;;;8.62;76.65
75424;BME280;64005;55.160;36.002;2023-04-03T17:55:06;99027.13;;;8.62;76.74
75424;BME280;64005;55.160;36.002;2023-04-03T17:57:33;99031.22;;;8.64;76.46
75424;BME280;64005;55.160;36.002;2023-04-03T18:00:01;99028.78;;;8.63;76.53
75424;BME280;64005;55.160;36.002;2023-04-03T18:02:30;99032.19;;;8.60;76.55
75424;BME280;64005;55.160;36.002;2023-04-03T18:04:58;99031.69;;;8.58;76.88
75424;BME280;64005;55.160;36.002;2023-04-03T18:07:26;99022.38;;;8.54;76.76
75424;BME280;64005;55.160;36.002;2023-04-03T18:09:56;99036.59;;;8.61;76.64
75424;BME280;64005;55.160;36.002;2023-04-03T18:12:25;99034.78;;;8.65;76.48
75424;BME280;64005;55.160;36.002;2023-04-03T18:14:53;99039.41;;;8.69;76.27
75424;BME280;64005;55.160;36.002;2023-04-03T18:17:20;99034.81;;;8.73;76.30
75424;BME280;64005;55.160;36.002;2023-04-03T18:19:48;99032.56;;;8.75;76.23
75424;BME280;64005;55.160;36.002;2023-04-03T18:22:16;99023.88;;;8.68;76.09
75424;BME280;64005;55.160;36.002;2023-04-03T18:24:47;99026.81;;;8.72;76.42
75424;BME280;64005;55.160;36.002;2023-04-03T18:27:18;99032.72;;;8.70;76.46
75424;BME280;64005;55.160;36.002;2023-04-03T18:29:46;99053.06;;;8.57;76.39
75424;BME280;64005;55.160;36.002;2023-04-03T18:32:15;99069.16;;;8.47;76.73
75424;BME280;64005;55.160;36.002;2023-04-03T18:34:44;99059.88;;;8.51;76.77
75424;BME280;64005;55.160;36.002;2023-04-03T18:37:11;99062.88;;;8.63;76.59
75424;BME280;64005;55.160;36.002;2023-04-03T18:39:40;99065.19;;;8.70;76.75
75424;BME280;64005;55.160;36.002;2023-04-03T18:42:09;99066.47;;;8.72;76.85
75424;BME280;64005;55.160;36.002;2023-04-03T18:44:40;99074.00;;;8.81;76.61
75424;BME280;64005;55.160;36.002;2023-04-03T18:47:09;99070.09;;;8.82;76.47
75424;BME280;64005;55.160;36.002;2023-04-03T18:49:38;99079.53;;;8.81;76.52
75424;BME280;64005;55.160;36.002;2023-04-03T18:52:06;99065.34;;;8.82;76.68
75424;BME280;64005;55.160;36.002;2023-04-03T18:54:35;99064.69;;;8.85;76.44
75424;BME280;64005;55.160;36.002;2023-04-03T18:57:03;99072.69;;;8.87;76.32
75424;BME280;64005;55.160;36.002;2023-04-03T18:59:30;99065.69;;;8.81;76.28
75424;BME280;64005;55.160;36.002;2023-04-03T19:01:59;99063.53;;;8.77;76.35
75424;BME280;64005;55.160;36.002;2023-04-03T19:04:27;99063.69;;;8.72;76.46
75424;BME280;64005;55.160;36.002;2023-04-03T19:06:55;99066.31;;;8.69;76.37
75424;BME280;64005;55.160;36.002;2023-04-03T19:09:24;99061.38;;;8.57;76.44
75424;BME280;64005;55.160;36.002;2023-04-03T19:11:52;99058.78;;;8.61;76.74
75424;BME280;64005;55.160;36.002;2023-04-03T19:14:19;99059.41;;;8.58;76.63
75424;BME280;64005;55.160;36.002;2023-04-03T19:16:47;99055.34;;;8.55;76.64
75424;BME280;64005;55.160;36.002;2023-04-03T19:19:16;99057.59;;;8.53;76.26
75424;BME280;64005;55.160;36.002;2023-04-03T19:21:43;99062.34;;;8.53;76.23
75424;BME280;64005;55.160;36.002;2023-04-03T19:24:11;99045.34;;;8.46;76.47
75424;BME280;64005;55.160;36.002;2023-04-03T19:26:39;99053.34;;;8.47;76.57
75424;BME280;64005;55.160;36.002;2023-04-03T19:29:07;99054.00;;;8.44;76.51